sensor_id;sensor_type;location;lat;lon;timestamp;temperature;humidity
64501;DHT22;50874;24.150;-110.320;2022-09-09T00:01:52;28.40;99.90
64501;DHT22;50874;24.150;-110.320;2022-09-09T00:04:34;28.40;99.90
64501;DHT22;50874;24.150;-110.320;2022-09-09T00:07:14;28.30;99.90
64501;DHT22;50874;24.150;-110.320;2022-09-09T00:12:32;28.30;99.90
64501;DHT22;50874;24.150;-110.320;2022-09-09T00:15:11;28.40;99.90
64501;DHT22;50874;24.150;-110.320;2022-09-09T00:17:47;28.50;99.90
64501;DHT22;50874;24.150;-110.320;2022-09-09T00:20:49;28.40;99.90
64501;DHT22;50874;24.150;-110.320;2022-09-09T00:28:50;27.90;99.90
64501;DHT22;50874;24.150;-110.320;2022-09-09T00:31:30;27.80;99.90
64501;DHT22;50874;24.150;-110.320;2022-09-09T00:34:15;27.70;99.90
64501;DHT22;50874;24.150;-110.320;2022-09-09T00:36:43;27.40;99.90
64501;DHT22;50874;24.150;-110.320;2022-09-09T00:39:38;27.20;99.90
64501;DHT22;50874;24.150;-110.320;2022-09-09T00:42:18;27.00;99.90
64501;DHT22;50874;24.150;-110.320;2022-09-09T00:47:51;26.90;99.90
64501;DHT22;50874;24.150;-110.320;2022-09-09T00:50:25;26.90;99.90
64501;DHT22;50874;24.150;-110.320;2022-09-09T00:53:26;26.90;99.90
64501;DHT22;50874;24.150;-110.320;2022-09-09T00:56:13;26.90;99.90
64501;DHT22;50874;24.150;-110.320;2022-09-09T00:58:43;26.90;99.90
64501;DHT22;50874;24.150;-110.320;2022-09-09T01:01:16;26.80;99.90
64501;DHT22;50874;24.150;-110.320;2022-09-09T01:11:49;26.70;99.90
64501;DHT22;50874;24.150;-110.320;2022-09-09T01:22:32;26.60;99.90
64501;DHT22;50874;24.150;-110.320;2022-09-09T01:27:40;26.60;99.90
64501;DHT22;50874;24.150;-110.320;2022-09-09T01:30:13;26.60;99.90
64501;DHT22;50874;24.150;-110.320;2022-09-09T01:32:49;26.50;99.90
64501;DHT22;50874;24.150;-110.320;2022-09-09T01:37:52;26.50;99.90
64501;DHT22;50874;24.150;-110.320;2022-09-09T01:40:18;26.50;99.90
64501;DHT22;50874;24.150;-110.320;2022-09-09T01:42:45;26.50;99.90
64501;DHT22;50874;24.150;-110.320;2022-09-09T01:45:11;26.50;99.90
64501;DHT22;50874;24.150;-110.320;2022-09-09T01:47:38;26.50;99.90
64501;DHT22;50874;24.150;-110.320;2022-09-09T01:50:05;26.50;99.90
64501;DHT22;50874;24.150;-110.320;2022-09-09T01:52:36;26.60;99.90
64501;DHT22;50874;24.150;-110.320;2022-09-09T01:55:04;26.50;99.90
64501;DHT22;50874;24.150;-110.320;2022-09-09T02:00:05;26.50;99.90
64501;DHT22;50874;24.150;-110.320;2022-09-09T02:05:27;26.50;99.90
64501;DHT22;50874;24.150;-110.320;2022-09-09T02:08:23;26.40;99.90
64501;DHT22;50874;24.150;-110.320;2022-09-09T02:11:23;26.30;99.90
64501;DHT22;50874;24.150;-110.320;2022-09-09T02:14:01;26.20;99.90
64501;DHT22;50874;24.150;-110.320;2022-09-09T02:18:56;26.10;99.90
64501;DHT22;50874;24.150;-110.320;2022-09-09T02:21:24;26.10;99.90
64501;DHT22;50874;24.150;-110.320;2022-09-09T02:23:53;26.10;99.90
64501;DHT22;50874;24.150;-110.320;2022-09-09T02:26:21;26.10;99.90
64501;DHT22;50874;24.150;-110.320;2022-09-09T02:28:51;26.10;99.90
64501;DHT22;50874;24.150;-110.320;2022-09-09T02:31:21;26.20;99.90
64501;DHT22;50874;24.150;-110.320;2022-09-09T02:33:58;26.20;99.90
64501;DHT22;50874;24.150;-110.320;2022-09-09T02:36:30;26.10;99.90
64501;DHT22;50874;24.150;-110.320;2022-09-09T02:39:00;26.20;99.90
64501;DHT22;50874;24.150;-110.320;2022-09-09T02:41:31;26.20;99.90
64501;DHT22;50874;24.150;-110.320;2022-09-09T02:43:58;26.20;99.90
64501;DHT22;50874;24.150;-110.320;2022-09-09T02:49:22;26.20;99.90
64501;DHT22;50874;24.150;-110.320;2022-09-09T02:52:02;26.10;99.90
64501;DHT22;50874;24.150;-110.320;2022-09-09T02:54:37;26.20;99.90
64501;DHT22;50874;24.150;-110.320;2022-09-09T02:57:27;26.20;99.90
64501;DHT22;50874;24.150;-110.320;2022-09-09T02:59:58;26.10;99.90
64501;DHT22;50874;24.150;-110.320;2022-09-09T03:02:24;26.10;99.90
64501;DHT22;50874;24.150;-110.320;2022-09-09T03:04:51;26.10;99.90
64501;DHT22;50874;24.150;-110.320;2022-09-09T03:07:19;26.10;99.90
64501;DHT22;50874;24.150;-110.320;2022-09-09T03:09:45;26.00;99.90
64501;DHT22;50874;24.150;-110.320;2022-09-09T03:12:12;26.00;99.90
64501;DHT22;50874;24.150;-110.320;2022-09-09T03:14:39;26.00;99.90
64501;DHT22;50874;24.150;-110.320;2022-09-09T03:17:06;26.00;99.90
64501;DHT22;50874;24.150;-110.320;2022-09-09T03:19:32;26.00;99.90
64501;DHT22;50874;24.150;-110.320;2022-09-09T03:22:01;26.00;99.90
64501;DHT22;50874;24.150;-110.320;2022-09-09T03:24:27;26.00;99.90
64501;DHT22;50874;24.150;-110.320;2022-09-09T03:26:53;26.00;99.90
64501;DHT22;50874;24.150;-110.320;2022-09-09T03:29:21;26.00;99.90
64501;DHT22;50874;24.150;-110.320;2022-09-09T03:31:48;25.90;99.90
64501;DHT22;50874;24.150;-110.320;2022-09-09T03:34:14;25.90;99.90
64501;DHT22;50874;24.150;-110.320;2022-09-09T03:36:41;25.90;99.90
64501;DHT22;50874;24.150;-110.320;2022-09-09T03:39:07;25.90;99.90
64501;DHT22;50874;24.150;-110.320;2022-09-09T03:41:34;25.90;99.90
64501;DHT22;50874;24.150;-110.320;2022-09-09T03:44:00;25.80;99.90
64501;DHT22;50874;24.150;-110.320;2022-09-09T03:46:26;25.90;99.90
64501;DHT22;50874;24.150;-110.320;2022-09-09T03:48:53;25.80;99.90
64501;DHT22;50874;24.150;-110.320;2022-09-09T03:51:20;25.80;99.90
64501;DHT22;50874;24.150;-110.320;2022-09-09T03:53:47;25.80;99.90
64501;DHT22;50874;24.150;-110.320;2022-09-09T03:56:14;25.80;99.90
64501;DHT22;50874;24.150;-110.320;2022-09-09T03:58:41;25.80;99.90
64501;DHT22;50874;24.150;-110.320;2022-09-09T04:01:09;25.80;99.90
64501;DHT22;50874;24.150;-110.320;2022-09-09T04:03:36;25.80;99.90
64501;DHT22;50874;24.150;-110.320;2022-09-09T04:06:04;25.80;99.90
64501;DHT22;50874;24.150;-110.320;2022-09-09T04:08:32;25.70;99.90
64501;DHT22;50874;24.150;-110.320;2022-09-09T04:10:59;25.70;99.90
64501;DHT22;50874;24.150;-110.320;2022-09-09T04:13:26;25.70;99.90
64501;DHT22;50874;24.150;-110.320;2022-09-09T04:15:58;25.60;99.90
64501;DHT22;50874;24.150;-110.320;2022-09-09T04:18:26;25.60;99.90
64501;DHT22;50874;24.150;-110.320;2022-09-09T04:20:55;25.70;99.90
64501;DHT22;50874;24.150;-110.320;2022-09-09T04:23:26;25.60;99.90
64501;DHT22;50874;24.150;-110.320;2022-09-09T04:25:55;25.60;99.90
64501;DHT22;50874;24.150;-110.320;2022-09-09T04:28:23;25.60;99.90
64501;DHT22;50874;24.150;-110.320;2022-09-09T04:30:50;25.60;99.90
64501;DHT22;50874;24.150;-110.320;2022-09-09T04:33:19;25.50;99.90
64501;DHT22;50874;24.150;-110.320;2022-09-09T04:35:47;25.50;99.90
64501;DHT22;50874;24.150;-110.320;2022-09-09T04:38:13;25.50;99.90
64501;DHT22;50874;24.150;-110.320;2022-09-09T04:40:46;25.50;99.90
64501;DHT22;50874;24.150;-110.320;2022-09-09T04:43:13;25.50;99.90
64501;DHT22;50874;24.150;-110.320;2022-09-09T04:45:41;25.40;99.90
64501;DHT22;50874;24.150;-110.320;2022-09-09T04:48:09;25.40;99.90
64501;DHT22;50874;24.150;-110.320;2022-09-09T04:50:38;25.40;99.90
64501;DHT22;50874;24.150;-110.320;2022-09-09T04:53:05;25.40;99.90
64501;DHT22;50874;24.150;-110.320;2022-09-09T04:55:32;25.40;99.90
64501;DHT22;50874;24.150;-110.320;2022-09-09T04:58:03;25.40;99.90
64501;DHT22;50874;24.150;-110.320;2022-09-09T05:00:31;25.40;99.90
64501;DHT22;50874;24.150;-110.320;2022-09-09T05:02:58;25.40;99.90
64501;DHT22;50874;24.150;-110.320;2022-09-09T05:05:24;25.30;99.90
64501;DHT22;50874;24.150;-110.320;2022-09-09T05:07:51;25.40;99.90
64501;DHT22;50874;24.150;-110.320;2022-09-09T05:10:17;25.30;99.90
64501;DHT22;50874;24.150;-110.320;2022-09-09T05:12:52;25.40;99.90
64501;DHT22;50874;24.150;-110.320;2022-09-09T05:15:19;25.30;99.90
64501;DHT22;50874;24.150;-110.320;2022-09-09T05:17:47;25.30;99.90
64501;DHT22;50874;24.150;-110.320;2022-09-09T05:20:13;25.30;99.90
64501;DHT22;50874;24.150;-110.320;2022-09-09T05:22:40;25.30;99.90
64501;DHT22;50874;24.150;-110.320;2022-09-09T05:25:06;25.30;99.90
64501;DHT22;50874;24.150;-110.320;2022-09-09T05:27:36;25.30;99.90
64501;DHT22;50874;24.150;-110.320;2022-09-09T05:30:03;25.20;99.90
64501;DHT22;50874;24.150;-110.320;2022-09-09T05:32:30;25.20;99.90
64501;DHT22;50874;24.150;-110.320;2022-09-09T05:35:00;25.20;99.90
64501;DHT22;50874;24.150;-110.320;2022-09-09T05:37:27;25.20;99.90
64501;DHT22;50874;24.150;-110.320;2022-09-09T05:39:54;25.20;99.90
64501;DHT22;50874;24.150;-110.320;2022-09-09T05:42:21;25.20;99.90
64501;DHT22;50874;24.150;-110.320;2022-09-09T05:44:47;25.20;99.90
64501;DHT22;50874;24.150;-110.320;2022-09-09T05:47:14;25.20;99.90
64501;DHT22;50874;24.150;-110.320;2022-09-09T05:49:41;25.20;99.90
64501;DHT22;50874;24.150;-110.320;2022-09-09T05:52:07;25.20;99.90
64501;DHT22;50874;24.150;-110.320;2022-09-09T05:54:35;25.20;99.90
64501;DHT22;50874;24.150;-110.320;2022-09-09T05:57:03;25.20;99.90
64501;DHT22;50874;24.150;-110.320;2022-09-09T05:59:29;25.20;99.90
64501;DHT22;50874;24.150;-110.320;2022-09-09T06:01:58;25.10;99.90
64501;DHT22;50874;24.150;-110.320;2022-09-09T06:04:24;25.10;99.90
64501;DHT22;50874;24.150;-110.320;2022-09-09T06:06:51;25.10;99.90
64501;DHT22;50874;24.150;-110.320;2022-09-09T06:09:17;25.10;99.90
64501;DHT22;50874;24.150;-110.320;2022-09-09T06:11:44;25.10;99.90
64501;DHT22;50874;24.150;-110.320;2022-09-09T06:14:11;25.10;99.90
64501;DHT22;50874;24.150;-110.320;2022-09-09T06:16:38;25.10;99.90
64501;DHT22;50874;24.150;-110.320;2022-09-09T06:19:04;25.10;99.90
64501;DHT22;50874;24.150;-110.320;2022-09-09T06:21:35;25.10;99.90
64501;DHT22;50874;24.150;-110.320;2022-09-09T06:24:06;25.10;99.90
64501;DHT22;50874;24.150;-110.320;2022-09-09T06:26:35;25.00;99.90
64501;DHT22;50874;24.150;-110.320;2022-09-09T06:29:03;25.10;99.90
64501;DHT22;50874;24.150;-110.320;2022-09-09T06:31:31;25.10;99.90
64501;DHT22;50874;24.150;-110.320;2022-09-09T06:34:00;25.10;99.90
64501;DHT22;50874;24.150;-110.320;2022-09-09T06:36:29;25.10;99.90
64501;DHT22;50874;24.150;-110.320;2022-09-09T06:38:56;25.20;99.90
64501;DHT22;50874;24.150;-110.320;2022-09-09T06:41:24;25.20;99.90
64501;DHT22;50874;24.150;-110.320;2022-09-09T06:43:52;25.20;99.90
64501;DHT22;50874;24.150;-110.320;2022-09-09T06:46:21;25.20;99.90
64501;DHT22;50874;24.150;-110.320;2022-09-09T06:48:48;25.30;99.90
64501;DHT22;50874;24.150;-110.320;2022-09-09T06:51:17;25.30;99.90
64501;DHT22;50874;24.150;-110.320;2022-09-09T06:53:45;25.30;99.90
64501;DHT22;50874;24.150;-110.320;2022-09-09T06:56:21;25.20;99.90
64501;DHT22;50874;24.150;-110.320;2022-09-09T06:58:50;25.30;99.90
64501;DHT22;50874;24.150;-110.320;2022-09-09T07:01:20;25.20;99.90
64501;DHT22;50874;24.150;-110.320;2022-09-09T07:03:49;25.20;99.90
64501;DHT22;50874;24.150;-110.320;2022-09-09T07:06:24;25.20;99.90
64501;DHT22;50874;24.150;-110.320;2022-09-09T07:08:55;25.20;99.90
64501;DHT22;50874;24.150;-110.320;2022-09-09T07:11:24;25.20;99.90
64501;DHT22;50874;24.150;-110.320;2022-09-09T07:13:52;25.20;99.90
64501;DHT22;50874;24.150;-110.320;2022-09-09T07:16:20;25.20;99.90
64501;DHT22;50874;24.150;-110.320;2022-09-09T07:18:47;25.20;99.90
64501;DHT22;50874;24.150;-110.320;2022-09-09T07:21:14;25.20;99.90
64501;DHT22;50874;24.150;-110.320;2022-09-09T07:23:41;25.10;99.90
64501;DHT22;50874;24.150;-110.320;2022-09-09T07:26:13;25.20;99.90
64501;DHT22;50874;24.150;-110.320;2022-09-09T07:28:41;25.20;99.90
64501;DHT22;50874;24.150;-110.320;2022-09-09T07:31:30;25.10;99.90
64501;DHT22;50874;24.150;-110.320;2022-09-09T07:33:57;25.10;99.90
64501;DHT22;50874;24.150;-110.320;2022-09-09T07:36:27;25.00;99.90
64501;DHT22;50874;24.150;-110.320;2022-09-09T07:38:59;25.00;99.90
64501;DHT22;50874;24.150;-110.320;2022-09-09T07:41:29;25.00;99.90
64501;DHT22;50874;24.150;-110.320;2022-09-09T07:43:56;25.00;99.90
64501;DHT22;50874;24.150;-110.320;2022-09-09T07:46:24;25.00;99.90
64501;DHT22;50874;24.150;-110.320;2022-09-09T07:48:55;25.00;99.90
64501;DHT22;50874;24.150;-110.320;2022-09-09T07:51:34;25.00;99.90
64501;DHT22;50874;24.150;-110.320;2022-09-09T07:54:03;25.00;99.90
64501;DHT22;50874;24.150;-110.320;2022-09-09T07:56:30;24.90;99.90
64501;DHT22;50874;24.150;-110.320;2022-09-09T07:58:58;24.90;99.90
64501;DHT22;50874;24.150;-110.320;2022-09-09T08:01:28;24.80;99.90
64501;DHT22;50874;24.150;-110.320;2022-09-09T08:04:02;24.80;99.90
64501;DHT22;50874;24.150;-110.320;2022-09-09T08:06:32;24.80;99.90
64501;DHT22;50874;24.150;-110.320;2022-09-09T08:08:59;24.80;99.90
64501;DHT22;50874;24.150;-110.320;2022-09-09T08:11:27;24.80;99.90
64501;DHT22;50874;24.150;-110.320;2022-09-09T08:13:54;24.80;99.90
64501;DHT22;50874;24.150;-110.320;2022-09-09T08:16:23;24.80;99.90
64501;DHT22;50874;24.150;-110.320;2022-09-09T08:18:51;24.90;99.90
64501;DHT22;50874;24.150;-110.320;2022-09-09T08:21:22;24.90;99.90
64501;DHT22;50874;24.150;-110.320;2022-09-09T08:23:51;24.80;99.90
64501;DHT22;50874;24.150;-110.320;2022-09-09T08:26:20;24.80;99.90
64501;DHT22;50874;24.150;-110.320;2022-09-09T08:28:49;24.80;99.90
64501;DHT22;50874;24.150;-110.320;2022-09-09T08:31:42;24.80;99.90
64501;DHT22;50874;24.150;-110.320;2022-09-09T08:34:09;24.80;99.90
64501;DHT22;50874;24.150;-110.320;2022-09-09T08:36:38;24.70;99.90
64501;DHT22;50874;24.150;-110.320;2022-09-09T08:39:07;24.70;99.90
64501;DHT22;50874;24.150;-110.320;2022-09-09T08:57:58;24.70;99.90
64501;DHT22;50874;24.150;-110.320;2022-09-09T09:06:34;24.70;99.90
64501;DHT22;50874;24.150;-110.320;2022-09-09T09:11:58;24.70;99.90
64501;DHT22;50874;24.150;-110.320;2022-09-09T09:14:29;24.70;99.90
64501;DHT22;50874;24.150;-110.320;2022-09-09T09:17:05;24.70;99.90
64501;DHT22;50874;24.150;-110.320;2022-09-09T09:19:34;24.70;99.90
64501;DHT22;50874;24.150;-110.320;2022-09-09T09:22:22;24.70;99.90
64501;DHT22;50874;24.150;-110.320;2022-09-09T09:24:55;24.70;99.90
64501;DHT22;50874;24.150;-110.320;2022-09-09T09:27:40;24.70;99.90
64501;DHT22;50874;24.150;-110.320;2022-09-09T09:30:18;24.80;99.90
64501;DHT22;50874;24.150;-110.320;2022-09-09T09:33:00;24.80;99.90
64501;DHT22;50874;24.150;-110.320;2022-09-09T09:35:28;24.80;99.90
64501;DHT22;50874;24.150;-110.320;2022-09-09T09:37:55;24.80;99.90
64501;DHT22;50874;24.150;-110.320;2022-09-09T09:40:22;24.80;99.90
64501;DHT22;50874;24.150;-110.320;2022-09-09T09:48:05;24.90;99.90
64501;DHT22;50874;24.150;-110.320;2022-09-09T09:50:33;24.80;99.90
64501;DHT22;50874;24.150;-110.320;2022-09-09T09:53:04;24.80;99.90
64501;DHT22;50874;24.150;-110.320;2022-09-09T09:55:32;24.80;99.90
64501;DHT22;50874;24.150;-110.320;2022-09-09T09:58:05;24.80;99.90
64501;DHT22;50874;24.150;-110.320;2022-09-09T10:00:32;24.70;99.90
64501;DHT22;50874;24.150;-110.320;2022-09-09T10:03:01;24.80;99.90
64501;DHT22;50874;24.150;-110.320;2022-09-09T10:05:30;24.70;99.90
64501;DHT22;50874;24.150;-110.320;2022-09-09T10:08:02;24.80;99.90
64501;DHT22;50874;24.150;-110.320;2022-09-09T10:10:46;24.70;99.90
64501;DHT22;50874;24.150;-110.320;2022-09-09T10:18:58;24.70;99.90
64501;DHT22;50874;24.150;-110.320;2022-09-09T10:29:40;24.70;99.90
64501;DHT22;50874;24.150;-110.320;2022-09-09T10:48:47;24.80;99.90
64501;DHT22;50874;24.150;-110.320;2022-09-09T10:57:33;24.80;99.90
64501;DHT22;50874;24.150;-110.320;2022-09-09T11:00:15;24.80;99.90
64501;DHT22;50874;24.150;-110.320;2022-09-09T11:02:43;24.80;99.90
64501;DHT22;50874;24.150;-110.320;2022-09-09T11:16:36;24.90;99.90
64501;DHT22;50874;24.150;-110.320;2022-09-09T11:21:46;24.80;99.90
64501;DHT22;50874;24.150;-110.320;2022-09-09T11:24:22;24.90;99.90
64501;DHT22;50874;24.150;-110.320;2022-09-09T11:27:05;24.90;99.90
64501;DHT22;50874;24.150;-110.320;2022-09-09T11:35:17;24.80;99.90
64501;DHT22;50874;24.150;-110.320;2022-09-09T11:40:35;24.70;99.90
64501;DHT22;50874;24.150;-110.320;2022-09-09T11:45:36;24.60;99.90
64501;DHT22;50874;24.150;-110.320;2022-09-09T11:48:04;24.60;99.90
64501;DHT22;50874;24.150;-110.320;2022-09-09T11:50:34;24.60;99.90
64501;DHT22;50874;24.150;-110.320;2022-09-09T11:53:21;24.50;99.90
64501;DHT22;50874;24.150;-110.320;2022-09-09T11:56:03;24.50;99.90
64501;DHT22;50874;24.150;-110.320;2022-09-09T11:58:36;24.50;99.90
64501;DHT22;50874;24.150;-110.320;2022-09-09T12:01:25;24.50;99.90
64501;DHT22;50874;24.150;-110.320;2022-09-09T12:09:43;24.40;99.90
64501;DHT22;50874;24.150;-110.320;2022-09-09T12:15:29;24.30;99.90
64501;DHT22;50874;24.150;-110.320;2022-09-09T12:17:41;24.30;99.90
64501;DHT22;50874;24.150;-110.320;2022-09-09T12:20:17;24.30;99.90
64501;DHT22;50874;24.150;-110.320;2022-09-09T12:28:48;24.20;99.90
64501;DHT22;50874;24.150;-110.320;2022-09-09T12:31:21;24.20;99.90
64501;DHT22;50874;24.150;-110.320;2022-09-09T12:33:48;24.20;99.90
64501;DHT22;50874;24.150;-110.320;2022-09-09T12:36:23;24.20;99.90
64501;DHT22;50874;24.150;-110.320;2022-09-09T12:38:50;24.20;99.90
64501;DHT22;50874;24.150;-110.320;2022-09-09T12:41:25;24.20;99.90
64501;DHT22;50874;24.150;-110.320;2022-09-09T12:43:51;24.20;99.90
64501;DHT22;50874;24.150;-110.320;2022-09-09T12:46:42;24.20;99.90
64501;DHT22;50874;24.150;-110.320;2022-09-09T12:49:37;24.20;99.90
64501;DHT22;50874;24.150;-110.320;2022-09-09T12:52:29;24.20;99.90
64501;DHT22;50874;24.150;-110.320;2022-09-09T12:54:56;24.20;99.90
64501;DHT22;50874;24.150;-110.320;2022-09-09T12:57:24;24.30;99.90
64501;DHT22;50874;24.150;-110.320;2022-09-09T12:59:52;24.30;99.90
64501;DHT22;50874;24.150;-110.320;2022-09-09T13:02:31;24.30;99.90
64501;DHT22;50874;24.150;-110.320;2022-09-09T13:05:28;24.30;99.90
64501;DHT22;50874;24.150;-110.320;2022-09-09T13:08:02;24.40;99.90
64501;DHT22;50874;24.150;-110.320;2022-09-09T13:10:31;24.40;99.90
64501;DHT22;50874;24.150;-110.320;2022-09-09T13:13:00;24.50;99.90
64501;DHT22;50874;24.150;-110.320;2022-09-09T13:15:28;24.50;99.90
64501;DHT22;50874;24.150;-110.320;2022-09-09T13:17:57;24.50;99.90
64501;DHT22;50874;24.150;-110.320;2022-09-09T13:20:27;24.50;99.90
64501;DHT22;50874;24.150;-110.320;2022-09-09T13:22:55;24.50;99.90
64501;DHT22;50874;24.150;-110.320;2022-09-09T13:25:27;24.60;99.90
64501;DHT22;50874;24.150;-110.320;2022-09-09T13:28:05;24.60;99.90
64501;DHT22;50874;24.150;-110.320;2022-09-09T13:30:36;24.60;99.90
64501;DHT22;50874;24.150;-110.320;2022-09-09T13:33:20;24.70;99.90
64501;DHT22;50874;24.150;-110.320;2022-09-09T13:35:55;24.70;99.90
64501;DHT22;50874;24.150;-110.320;2022-09-09T13:38:22;24.70;99.90
64501;DHT22;50874;24.150;-110.320;2022-09-09T13:41:08;24.70;99.90
64501;DHT22;50874;24.150;-110.320;2022-09-09T13:43:38;24.80;99.90
64501;DHT22;50874;24.150;-110.320;2022-09-09T13:49:00;24.90;99.90
64501;DHT22;50874;24.150;-110.320;2022-09-09T13:51:47;25.00;99.90
64501;DHT22;50874;24.150;-110.320;2022-09-09T13:54:18;25.10;99.90
64501;DHT22;50874;24.150;-110.320;2022-09-09T13:56:46;25.10;99.90
64501;DHT22;50874;24.150;-110.320;2022-09-09T13:59:14;25.20;99.90
64501;DHT22;50874;24.150;-110.320;2022-09-09T14:01:41;25.30;99.90
64501;DHT22;50874;24.150;-110.320;2022-09-09T14:04:08;25.30;99.90
64501;DHT22;50874;24.150;-110.320;2022-09-09T14:06:35;25.40;99.90
64501;DHT22;50874;24.150;-110.320;2022-09-09T14:09:06;25.50;99.90
64501;DHT22;50874;24.150;-110.320;2022-09-09T14:11:33;25.60;99.90
64501;DHT22;50874;24.150;-110.320;2022-09-09T14:13:59;25.60;99.90
64501;DHT22;50874;24.150;-110.320;2022-09-09T14:16:27;25.60;99.90
64501;DHT22;50874;24.150;-110.320;2022-09-09T14:18:53;25.60;99.90
64501;DHT22;50874;24.150;-110.320;2022-09-09T14:21:22;25.70;99.90
64501;DHT22;50874;24.150;-110.320;2022-09-09T14:23:49;25.80;99.90
64501;DHT22;50874;24.150;-110.320;2022-09-09T14:26:15;25.90;99.90
64501;DHT22;50874;24.150;-110.320;2022-09-09T14:28:42;25.90;99.90
64501;DHT22;50874;24.150;-110.320;2022-09-09T14:31:08;25.90;99.90
64501;DHT22;50874;24.150;-110.320;2022-09-09T14:33:36;26.00;99.90
64501;DHT22;50874;24.150;-110.320;2022-09-09T14:36:03;26.10;99.90
64501;DHT22;50874;24.150;-110.320;2022-09-09T14:38:31;26.10;99.90
64501;DHT22;50874;24.150;-110.320;2022-09-09T14:41:00;26.20;99.90
64501;DHT22;50874;24.150;-110.320;2022-09-09T14:43:29;26.30;99.90
64501;DHT22;50874;24.150;-110.320;2022-09-09T14:46:05;26.30;99.90
64501;DHT22;50874;24.150;-110.320;2022-09-09T14:48:32;26.40;99.90
64501;DHT22;50874;24.150;-110.320;2022-09-09T14:51:11;26.80;99.90
64501;DHT22;50874;24.150;-110.320;2022-09-09T14:53:39;27.30;99.90
64501;DHT22;50874;24.150;-110.320;2022-09-09T14:56:08;27.90;99.90
64501;DHT22;50874;24.150;-110.320;2022-09-09T14:58:35;28.60;99.90
64501;DHT22;50874;24.150;-110.320;2022-09-09T15:01:07;28.80;99.90
64501;DHT22;50874;24.150;-110.320;2022-09-09T15:03:36;29.50;99.90
64501;DHT22;50874;24.150;-110.320;2022-09-09T15:06:11;29.80;99.90
64501;DHT22;50874;24.150;-110.320;2022-09-09T15:08:39;30.20;99.90
64501;DHT22;50874;24.150;-110.320;2022-09-09T15:11:07;30.60;99.90
64501;DHT22;50874;24.150;-110.320;2022-09-09T15:13:38;30.80;99.90
64501;DHT22;50874;24.150;-110.320;2022-09-09T15:16:16;31.00;99.90
64501;DHT22;50874;24.150;-110.320;2022-09-09T15:18:43;30.80;99.90
64501;DHT22;50874;24.150;-110.320;2022-09-09T15:21:16;31.00;99.90
64501;DHT22;50874;24.150;-110.320;2022-09-09T15:23:43;31.10;99.90
64501;DHT22;50874;24.150;-110.320;2022-09-09T15:26:10;30.90;99.90
64501;DHT22;50874;24.150;-110.320;2022-09-09T15:28:40;30.90;99.90
64501;DHT22;50874;24.150;-110.320;2022-09-09T15:31:17;30.20;99.90
64501;DHT22;50874;24.150;-110.320;2022-09-09T15:34:14;29.90;99.90
64501;DHT22;50874;24.150;-110.320;2022-09-09T15:36:43;29.80;99.90
64501;DHT22;50874;24.150;-110.320;2022-09-09T15:39:11;29.50;99.90
64501;DHT22;50874;24.150;-110.320;2022-09-09T15:41:42;29.30;99.90
64501;DHT22;50874;24.150;-110.320;2022-09-09T15:44:10;29.20;99.90
64501;DHT22;50874;24.150;-110.320;2022-09-09T15:46:44;29.10;99.90
64501;DHT22;50874;24.150;-110.320;2022-09-09T15:49:15;29.10;99.90
64501;DHT22;50874;24.150;-110.320;2022-09-09T15:51:55;29.10;99.90
64501;DHT22;50874;24.150;-110.320;2022-09-09T15:54:23;29.00;99.90
64501;DHT22;50874;24.150;-110.320;2022-09-09T15:56:58;29.00;99.90
64501;DHT22;50874;24.150;-110.320;2022-09-09T15:59:26;29.50;99.90
64501;DHT22;50874;24.150;-110.320;2022-09-09T16:01:54;30.30;99.90
64501;DHT22;50874;24.150;-110.320;2022-09-09T16:04:22;31.30;99.90
64501;DHT22;50874;24.150;-110.320;2022-09-09T16:06:51;31.90;99.90
64501;DHT22;50874;24.150;-110.320;2022-09-09T16:09:36;32.00;99.90
64501;DHT22;50874;24.150;-110.320;2022-09-09T16:12:07;31.90;99.90
64501;DHT22;50874;24.150;-110.320;2022-09-09T16:14:37;32.50;99.90
64501;DHT22;50874;24.150;-110.320;2022-09-09T16:17:05;33.20;99.90
64501;DHT22;50874;24.150;-110.320;2022-09-09T16:19:32;33.80;99.90
64501;DHT22;50874;24.150;-110.320;2022-09-09T16:22:00;34.00;99.90
64501;DHT22;50874;24.150;-110.320;2022-09-09T16:24:27;33.90;99.90
64501;DHT22;50874;24.150;-110.320;2022-09-09T16:26:54;33.70;99.90
64501;DHT22;50874;24.150;-110.320;2022-09-09T16:29:22;34.00;99.90
64501;DHT22;50874;24.150;-110.320;2022-09-09T16:31:49;34.10;99.90
64501;DHT22;50874;24.150;-110.320;2022-09-09T16:34:17;34.20;99.90
64501;DHT22;50874;24.150;-110.320;2022-09-09T16:36:44;34.30;99.90
64501;DHT22;50874;24.150;-110.320;2022-09-09T16:39:13;34.70;99.90
64501;DHT22;50874;24.150;-110.320;2022-09-09T16:41:41;35.00;99.90
64501;DHT22;50874;24.150;-110.320;2022-09-09T16:44:12;35.20;99.90
64501;DHT22;50874;24.150;-110.320;2022-09-09T16:46:41;35.00;99.90
64501;DHT22;50874;24.150;-110.320;2022-09-09T16:49:10;34.70;99.90
64501;DHT22;50874;24.150;-110.320;2022-09-09T16:51:45;34.70;99.90
64501;DHT22;50874;24.150;-110.320;2022-09-09T16:54:13;34.70;99.90
64501;DHT22;50874;24.150;-110.320;2022-09-09T16:56:47;35.20;99.90
64501;DHT22;50874;24.150;-110.320;2022-09-09T16:59:18;35.40;99.90
64501;DHT22;50874;24.150;-110.320;2022-09-09T17:01:49;35.70;99.90
64501;DHT22;50874;24.150;-110.320;2022-09-09T17:04:25;35.90;99.90
64501;DHT22;50874;24.150;-110.320;2022-09-09T17:06:53;36.00;99.90
64501;DHT22;50874;24.150;-110.320;2022-09-09T17:09:21;36.00;99.90
64501;DHT22;50874;24.150;-110.320;2022-09-09T17:11:49;36.20;99.90
64501;DHT22;50874;24.150;-110.320;2022-09-09T17:14:20;36.50;99.90
64501;DHT22;50874;24.150;-110.320;2022-09-09T17:16:47;36.30;99.90
64501;DHT22;50874;24.150;-110.320;2022-09-09T17:19:13;35.70;99.90
64501;DHT22;50874;24.150;-110.320;2022-09-09T17:21:46;35.90;99.90
64501;DHT22;50874;24.150;-110.320;2022-09-09T17:24:16;36.50;99.90
64501;DHT22;50874;24.150;-110.320;2022-09-09T17:27:20;36.60;99.90
64501;DHT22;50874;24.150;-110.320;2022-09-09T17:32:21;36.40;99.90
64501;DHT22;50874;24.150;-110.320;2022-09-09T17:34:48;36.20;99.90
64501;DHT22;50874;24.150;-110.320;2022-09-09T17:37:15;36.40;99.90
64501;DHT22;50874;24.150;-110.320;2022-09-09T17:39:41;35.90;99.90
64501;DHT22;50874;24.150;-110.320;2022-09-09T17:42:09;35.30;99.90
64501;DHT22;50874;24.150;-110.320;2022-09-09T17:44:35;36.20;99.90
64501;DHT22;50874;24.150;-110.320;2022-09-09T17:47:14;36.50;99.90